Theobroma, Brazil
Current Conditions -  °F | °C
As of 9:00 AM on Saturday 25 Oct 2014 (Local Time) from SBPV Reporting Station
Overcast Overcast  
Wind Chill: 73°   Ceiling: 900
Heat Index: 73°   Visibility: 6mi
Dew Point: 72°   Wind: 5mph
Humidity: 94%   Direction: 350°N
Pressure: 29.91"   Gusts: NA
Location:  10.24°S, 62.36°W
Report Text: SBPV 251300Z 35004KT 9999 FEW005 BKN009 OVC080 23/22 Q1013
Loading
Personal Weather Stations






























Interactive Weather Map
Tropical Storm Tracking
New forecast layout! Learn more

10-Day Weather Forecast

Advertisements
Track Severe Weather on mobile